Date,TemperatureHighF,TemperatureAvgF,TemperatureLowF,DewpointHighF,DewpointAvgF,DewpointLowF,HumidityHigh,HumidityAvg,HumidityLow,PressureMaxIn,PressureMinIn,WindSpeedMaxMPH,WindSpeedAvgMPH,GustSpeedMaxMPH,PrecipitationSumIn
2013-3-1,56,52,50,53,50,48,97,93,86,30.33,30.24,20,5,24,0.03
2013-3-2,55,49,39,50,46,38,96,89,79,30.24,30.04,11,3,19,0.08
2013-3-3,48,38,31,40,35,30,99,89,66,30.29,30.18,5,0,7,0.02
2013-3-4,53,39,29,39,34,29,98,83,49,30.29,29.91,4,0,9,0.01
2013-3-5,48,41,34,41,38,32,97,88,70,29.92,29.71,4,0,7,0.04
2013-3-6,43,41,40,42,40,39,98,96,92,29.87,29.57,4,0,8,0.42
2013-3-7,51,43,36,44,41,35,98,93,72,30.07,29.87,7,1,11,0.13
2013-3-8,54,43,33,44,40,32,98,89,64,30.23,30.06,3,0,8,0.00
2013-3-9,55,40,30,43,37,29,98,89,61,30.48,30.23,6,1,9,0.01
2013-3-10,47,41,34,42,39,33,98,93,77,30.48,30.41,3,0,6,0.01
2013-3-11,50,45,40,46,42,40,98,91,75,30.43,30.13,4,0,6,0.02
2013-3-12,53,50,46,52,49,46,97,93,85,30.13,30.04,16,6,22,0.04
2013-3-13,53,51,50,50,48,48,97,92,88,30.17,30.07,13,5,20,0.01
2013-3-14,54,50,48,48,46,44,97,88,72,30.11,30.00,17,4,22,0.02
2013-3-15,59,51,47,51,48,45,96,88,72,30.17,30.10,14,3,19,0.01
2013-3-16,52,46,34,46,42,33,96,87,65,30.11,29.85,18,3,23,0.00
2013-3-17,50,38,30,40,35,29,98,88,52,30.17,29.95,8,1,14,0.12
2013-3-18,53,43,34,43,37,33,94,81,56,30.22,30.08,11,2,20,0.00
2013-3-19,48,38,33,43,37,32,98,95,79,30.21,29.58,5,0,11,0.51
2013-3-20,51,46,36,49,42,33,98,86,64,29.98,29.34,21,5,33,0.66
2013-3-21,47,38,33,42,35,31,97,88,68,30.19,29.99,6,1,11,0.10
2013-3-22,48,36,30,37,33,29,98,87,57,30.36,30.19,4,0,7,0.04
2013-3-23,50,38,30,37,32,28,98,83,50,30.38,30.29,6,0,10,0.00
2013-3-24,55,40,29,39,33,28,98,80,38,30.28,30.11,4,0,6,0.00
2013-3-25,62,46,31,38,34,27,97,67,32,30.11,29.92,5,0,7,0.00
2013-3-26,59,48,42,46,41,37,90,76,56,30.00,29.94,4,0,6,0.00
2013-3-27,56,47,41,48,42,39,97,85,64,29.97,29.92,4,0,6,0.01
2013-3-28,58,47,40,51,45,39,98,92,75,30.13,29.97,5,0,7,0.14
2013-3-29,64,51,41,51,45,40,98,83,57,30.23,30.13,4,0,7,0.01
2013-3-30,66,50,35,52,44,34,98,81,52,30.24,30.06,7,0,12,0.00
2013-3-31,69,52,38,49,43,37,98,74,42,30.06,29.89,7,0,10,0.00